Time;durP1;ratioP1;P1;durP2;ratioP2;P2;SDS_P1;SDS_P2;PMS_P1;PMS_P2;Temp;Humidity;BMP_temperature;BMP_pressure;BME280_temperature;BME280_humidity;BME280_pressure;Samples;Min_cycle;Max_cycle;Signal;HPM_P1;HPM_P2
2022/11/24 00:02:11;;;;;;;;;10.50;6.50;;;;;;;;5087177;27;45156;-74
2022/11/24 00:04:37;;;;;;;;;8.25;4.00;;;;;;;;5097372;27;45177;-74
2022/11/24 00:07:02;;;;;;;;;11.50;5.75;;;;;;;;5085880;27;45867;-74
2022/11/24 00:09:27;;;;;;;;;6.50;3.50;;;;;;;;5083097;27;45209;-74
2022/11/24 00:11:53;;;;;;;;;12.50;6.25;;;;;;;;5085097;27;45536;-74
2022/11/24 00:14:18;;;;;;;;;5.00;1.75;;;;;;;;5080726;27;45203;-74
2022/11/24 00:16:43;;;;;;;;;4.00;4.00;;;;;;;;5084892;27;45378;-74
2022/11/24 00:19:09;;;;;;;;;5.75;3.00;;;;;;;;5084414;27;45199;-75
2022/11/24 00:21:35;;;;;;;;;7.00;4.25;;;;;;;;5081442;27;45244;-75
2022/11/24 00:24:01;;;;;;;;;8.75;5.00;;;;;;;;5080528;27;45370;-74
2022/11/24 00:26:27;;;;;;;;;9.00;5.75;;;;;;;;5081723;27;45346;-74
2022/11/24 00:28:54;;;;;;;;;5.50;3.75;;;;;;;;5080850;27;45342;-74
2022/11/24 00:31:33;;;;;;;;;6.00;5.00;;;;;;;;5083249;27;45245;-74
2022/11/24 00:33:59;;;;;;;;;4.00;2.50;;;;;;;;5099714;27;45425;-75
2022/11/24 00:36:25;;;;;;;;;5.75;2.00;;;;;;;;5086045;27;45380;-74
2022/11/24 00:38:54;;;;;;;;;2.50;1.75;;;;;;;;5082300;27;45370;-74
2022/11/24 00:41:20;;;;;;;;;5.25;2.50;;;;;;;;5089935;27;45673;-74
2022/11/24 00:43:45;;;;;;;;;3.50;3.00;;;;;;;;5082347;27;45334;-75
2022/11/24 00:46:10;;;;;;;;;7.75;4.25;;;;;;;;5094653;27;46267;-74
2022/11/24 00:48:36;;;;;;;;;9.50;5.75;;;;;;;;5080273;27;45233;-74
2022/11/24 00:51:03;;;;;;;;;7.25;3.00;;;;;;;;5079770;27;45232;-74
2022/11/24 00:53:29;;;;;;;;;4.00;2.50;;;;;;;;5088845;27;45153;-74
2022/11/24 00:55:54;;;;;;;;;2.25;2.00;;;;;;;;5079188;27;46189;-74
2022/11/24 00:58:20;;;;;;;;;1.00;1.00;;;;;;;;5091998;27;45247;-74
2022/11/24 01:00:45;;;;;;;;;3.75;2.25;;;;;;;;5080499;27;45708;-74
2022/11/24 01:03:14;;;;;;;;;4.00;2.00;;;;;;;;5080083;27;45384;-74
2022/11/24 01:05:39;;;;;;;;;2.50;1.75;;;;;;;;5081033;27;46383;-74
2022/11/24 01:08:05;;;;;;;;;5.00;3.00;;;;;;;;5079561;28;45296;-74
2022/11/24 01:10:30;;;;;;;;;1.50;1.00;;;;;;;;5089776;27;45603;-74
2022/11/24 01:12:55;;;;;;;;;1.25;1.00;;;;;;;;5081789;27;44727;-74
2022/11/24 01:15:21;;;;;;;;;2.75;2.00;;;;;;;;5077812;27;48157;-74
2022/11/24 01:17:46;;;;;;;;;1.00;1.00;;;;;;;;5082255;27;45248;-74
2022/11/24 01:20:11;;;;;;;;;1.00;0.00;;;;;;;;5091595;27;45276;-74
2022/11/24 01:22:41;;;;;;;;;0.00;0.00;;;;;;;;5082019;27;45171;-74
2022/11/24 01:25:06;;;;;;;;;0.00;0.00;;;;;;;;5079482;27;46209;-74
2022/11/24 01:27:32;;;;;;;;;1.50;0.00;;;;;;;;5081586;27;46137;-74
2022/11/24 01:29:57;;;;;;;;;2.00;1.00;;;;;;;;5084257;27;45260;-74
2022/11/24 01:32:22;;;;;;;;;3.50;1.00;;;;;;;;5084515;27;45484;-74
2022/11/24 01:34:48;;;;;;;;;2.00;1.00;;;;;;;;5089606;27;45315;-74
2022/11/24 01:37:13;;;;;;;;;4.75;1.25;;;;;;;;5083289;27;46572;-74
2022/11/24 01:39:38;;;;;;;;;0.00;0.00;;;;;;;;5079363;28;45271;-74
2022/11/24 01:42:03;;;;;;;;;2.00;1.00;;;;;;;;5079413;27;45355;-74
2022/11/24 01:44:29;;;;;;;;;2.00;1.00;;;;;;;;5078771;27;47036;-73
2022/11/24 01:47:00;;;;;;;;;1.00;1.00;;;;;;;;5079487;27;45418;-74
2022/11/24 01:49:34;;;;;;;;;0.00;0.00;;;;;;;;5079494;27;45378;-73
2022/11/24 01:52:03;;;;;;;;;2.50;0.00;;;;;;;;5086549;27;45477;-74
2022/11/24 01:54:34;;;;;;;;;1.00;1.00;;;;;;;;5095987;27;45450;-74
2022/11/24 01:57:12;;;;;;;;;1.00;0.00;;;;;;;;5091140;27;45301;-74
2022/11/24 01:59:38;;;;;;;;;0.00;0.00;;;;;;;;5083967;27;45318;-74
2022/11/24 02:02:03;;;;;;;;;1.00;0.00;;;;;;;;5086431;27;45483;-74
2022/11/24 02:04:30;;;;;;;;;0.75;0.00;;;;;;;;5078991;27;45373;-74
2022/11/24 02:06:58;;;;;;;;;0.00;0.00;;;;;;;;5081454;27;45364;-74
2022/11/24 02:09:27;;;;;;;;;0.25;0.00;;;;;;;;5093215;27;45242;-74
2022/11/24 02:11:53;;;;;;;;;1.00;0.00;;;;;;;;5081228;27;45417;-74
2022/11/24 02:14:19;;;;;;;;;0.00;0.00;;;;;;;;5079310;27;45484;-74
2022/11/24 02:16:48;;;;;;;;;0.50;0.00;;;;;;;;5081200;27;45330;-74
2022/11/24 02:19:19;;;;;;;;;0.75;0.00;;;;;;;;5079481;28;45342;-74
2022/11/24 02:21:45;;;;;;;;;0.00;0.00;;;;;;;;5081067;27;45258;-74
2022/11/24 02:24:16;;;;;;;;;0.00;0.00;;;;;;;;5078922;27;45271;-73
2022/11/24 02:26:43;;;;;;;;;0.25;0.00;;;;;;;;5085811;27;45389;-74
2022/11/24 02:29:09;;;;;;;;;0.00;0.00;;;;;;;;5080277;28;45315;-74
2022/11/24 02:31:34;;;;;;;;;0.00;0.00;;;;;;;;5084419;27;45351;-75
2022/11/24 02:33:59;;;;;;;;;0.50;0.50;;;;;;;;5085184;27;46892;-73
2022/11/24 02:36:24;;;;;;;;;0.25;0.00;;;;;;;;5085575;27;45350;-74
2022/11/24 02:38:50;;;;;;;;;3.00;0.00;;;;;;;;5082135;27;45321;-75
2022/11/24 02:41:19;;;;;;;;;1.00;0.00;;;;;;;;5084531;27;45272;-74
2022/11/24 02:43:51;;;;;;;;;0.00;0.00;;;;;;;;5081904;27;45285;-73
2022/11/24 02:46:16;;;;;;;;;1.00;1.00;;;;;;;;5082300;27;45230;-74
2022/11/24 02:48:41;;;;;;;;;3.00;0.25;;;;;;;;5085862;27;45367;-74
2022/11/24 02:51:06;;;;;;;;;0.75;0.00;;;;;;;;5084772;27;45463;-74
2022/11/24 02:53:31;;;;;;;;;0.00;0.00;;;;;;;;5083635;27;45413;-74
2022/11/24 02:55:57;;;;;;;;;0.00;0.00;;;;;;;;5083314;27;45300;-74
2022/11/24 02:58:22;;;;;;;;;1.00;0.75;;;;;;;;5089173;27;45238;-74
2022/11/24 03:00:47;;;;;;;;;2.25;1.00;;;;;;;;5094285;27;45298;-74
2022/11/24 03:03:12;;;;;;;;;2.00;0.00;;;;;;;;5089551;27;45896;-74
2022/11/24 03:05:38;;;;;;;;;3.75;1.00;;;;;;;;5082465;27;45208;-74
2022/11/24 03:08:03;;;;;;;;;0.75;0.75;;;;;;;;5082670;27;45463;-74
2022/11/24 03:10:28;;;;;;;;;1.00;1.00;;;;;;;;5081782;27;45277;-74
2022/11/24 03:12:54;;;;;;;;;3.25;1.00;;;;;;;;5082692;27;45216;-74
2022/11/24 03:15:19;;;;;;;;;2.00;0.50;;;;;;;;5081886;27;45175;-74
2022/11/24 03:17:45;;;;;;;;;2.00;0.25;;;;;;;;5089227;27;45303;-74
2022/11/24 03:20:10;;;;;;;;;2.00;1.00;;;;;;;;5091677;27;45210;-74
2022/11/24 03:22:35;;;;;;;;;1.75;0.00;;;;;;;;5083504;27;46036;-74
2022/11/24 03:25:01;;;;;;;;;2.50;1.75;;;;;;;;5095739;27;45267;-74
2022/11/24 03:27:26;;;;;;;;;2.00;0.50;;;;;;;;5083992;27;45669;-74
2022/11/24 03:29:51;;;;;;;;;1.00;0.00;;;;;;;;5081427;27;45296;-74
2022/11/24 03:32:16;;;;;;;;;2.25;0.00;;;;;;;;5087678;27;45328;-74
2022/11/24 03:34:41;;;;;;;;;1.00;1.00;;;;;;;;5085726;27;45379;-74
2022/11/24 03:37:06;;;;;;;;;2.25;1.00;;;;;;;;5083756;27;45608;-74
2022/11/24 03:39:32;;;;;;;;;0.00;0.00;;;;;;;;5081100;27;45421;-74
2022/11/24 03:41:57;;;;;;;;;1.25;1.25;;;;;;;;5082634;27;46012;-74
2022/11/24 03:44:22;;;;;;;;;2.00;1.00;;;;;;;;5080052;27;45322;-75
2022/11/24 03:46:47;;;;;;;;;1.00;1.00;;;;;;;;5084974;27;45485;-75
2022/11/24 03:49:12;;;;;;;;;1.75;1.00;;;;;;;;5086492;27;45500;-75
2022/11/24 03:51:38;;;;;;;;;2.25;0.00;;;;;;;;5089629;27;46015;-74
2022/11/24 03:54:03;;;;;;;;;2.00;0.00;;;;;;;;5080847;27;45341;-74
2022/11/24 03:56:28;;;;;;;;;1.00;1.00;;;;;;;;5084930;27;45370;-75
2022/11/24 03:58:53;;;;;;;;;1.00;1.00;;;;;;;;5088420;27;45342;-74
2022/11/24 04:01:19;;;;;;;;;1.00;1.00;;;;;;;;5093000;27;45418;-74
2022/11/24 04:03:44;;;;;;;;;0.75;0.00;;;;;;;;5081275;27;45314;-74
2022/11/24 04:06:09;;;;;;;;;1.75;0.50;;;;;;;;5083461;27;45592;-74
2022/11/24 04:08:34;;;;;;;;;0.00;0.00;;;;;;;;5080643;27;45442;-74
2022/11/24 04:11:00;;;;;;;;;3.00;1.00;;;;;;;;5082994;27;45291;-74
2022/11/24 04:13:25;;;;;;;;;1.25;0.75;;;;;;;;5080950;27;45262;-74
2022/11/24 04:15:51;;;;;;;;;1.25;0.75;;;;;;;;5085779;27;45479;-74
2022/11/24 04:18:16;;;;;;;;;1.00;1.00;;;;;;;;5085777;27;45228;-74
2022/11/24 04:20:42;;;;;;;;;3.50;0.50;;;;;;;;5092751;27;46445;-74
2022/11/24 04:23:07;;;;;;;;;2.25;1.25;;;;;;;;5080429;27;45268;-75
2022/11/24 04:25:33;;;;;;;;;1.50;1.00;;;;;;;;5095398;27;45290;-74
2022/11/24 04:27:58;;;;;;;;;1.50;0.75;;;;;;;;5082159;27;45305;-74
2022/11/24 04:30:24;;;;;;;;;1.00;1.00;;;;;;;;5080411;27;45358;-74
2022/11/24 04:32:50;;;;;;;;;2.00;1.00;;;;;;;;5087971;27;45218;-74
2022/11/24 04:35:15;;;;;;;;;1.75;0.50;;;;;;;;5084159;27;45252;-74
2022/11/24 04:37:40;;;;;;;;;1.25;0.75;;;;;;;;5082644;27;45355;-74
2022/11/24 04:40:07;;;;;;;;;1.75;1.00;;;;;;;;5080347;27;45305;-74
2022/11/24 04:42:32;;;;;;;;;3.25;1.00;;;;;;;;5082213;27;45371;-74
2022/11/24 04:44:57;;;;;;;;;0.75;0.75;;;;;;;;5080635;27;45407;-74
2022/11/24 04:47:24;;;;;;;;;3.50;0.00;;;;;;;;5085612;27;45328;-74
2022/11/24 04:49:49;;;;;;;;;0.25;0.25;;;;;;;;5087067;27;47022;-73
2022/11/24 04:52:18;;;;;;;;;0.75;0.75;;;;;;;;5091504;27;45485;-74
2022/11/24 04:54:44;;;;;;;;;0.50;0.00;;;;;;;;5080269;28;45260;-74
2022/11/24 04:57:16;;;;;;;;;3.50;1.25;;;;;;;;5089292;27;45409;-72
2022/11/24 04:59:41;;;;;;;;;5.00;0.75;;;;;;;;5080718;27;45243;-72
2022/11/24 05:02:07;;;;;;;;;2.00;1.00;;;;;;;;5081486;27;45394;-72
2022/11/24 05:04:32;;;;;;;;;0.00;0.00;;;;;;;;5080189;27;45156;-72
2022/11/24 05:06:57;;;;;;;;;1.00;1.00;;;;;;;;5086966;27;45383;-72
2022/11/24 05:09:23;;;;;;;;;3.75;1.00;;;;;;;;5092597;27;45390;-73
2022/11/24 05:11:48;;;;;;;;;2.00;0.75;;;;;;;;5089709;27;45230;-73
2022/11/24 05:14:13;;;;;;;;;2.25;1.00;;;;;;;;5082928;27;45397;-72
2022/11/24 05:16:38;;;;;;;;;2.75;1.50;;;;;;;;5091387;27;46945;-72
2022/11/24 05:19:03;;;;;;;;;5.50;0.75;;;;;;;;5079979;27;45454;-73
2022/11/24 05:21:28;;;;;;;;;1.75;1.00;;;;;;;;5081961;27;45216;-72
2022/11/24 05:23:54;;;;;;;;;1.00;1.00;;;;;;;;5085082;27;45339;-72
2022/11/24 05:26:19;;;;;;;;;1.50;1.00;;;;;;;;5090919;27;47411;-73
2022/11/24 05:28:44;;;;;;;;;1.25;1.00;;;;;;;;5079573;27;46326;-72
2022/11/24 05:31:09;;;;;;;;;3.50;0.25;;;;;;;;5081922;27;45301;-73
2022/11/24 05:33:35;;;;;;;;;4.50;1.00;;;;;;;;5079522;27;45307;-73
2022/11/24 05:36:02;;;;;;;;;1.25;1.00;;;;;;;;5081676;27;45242;-73
2022/11/24 05:38:28;;;;;;;;;8.75;4.00;;;;;;;;5077547;27;45987;-72
2022/11/24 05:40:53;;;;;;;;;2.50;1.00;;;;;;;;5079092;27;45453;-73
2022/11/24 05:43:18;;;;;;;;;1.75;1.00;;;;;;;;5080033;27;45374;-72
2022/11/24 05:45:43;;;;;;;;;2.00;1.00;;;;;;;;5084901;27;47240;-73
2022/11/24 05:48:11;;;;;;;;;3.50;2.75;;;;;;;;5078973;27;45378;-72
2022/11/24 05:50:36;;;;;;;;;3.25;2.00;;;;;;;;5091912;27;45283;-73
2022/11/24 05:53:05;;;;;;;;;6.50;3.00;;;;;;;;5085881;27;45419;-74
2022/11/24 05:55:30;;;;;;;;;3.00;1.00;;;;;;;;5079121;27;45368;-74
2022/11/24 05:57:59;;;;;;;;;7.00;3.00;;;;;;;;5089422;27;45327;-75
2022/11/24 06:00:24;;;;;;;;;2.00;2.00;;;;;;;;5078697;27;45339;-73
2022/11/24 06:02:49;;;;;;;;;2.00;2.00;;;;;;;;5080103;27;45292;-74
2022/11/24 06:05:14;;;;;;;;;2.25;1.00;;;;;;;;5078809;28;45328;-74
2022/11/24 06:07:39;;;;;;;;;11.25;2.50;;;;;;;;5080634;27;45608;-74
2022/11/24 06:10:05;;;;;;;;;1.50;1.50;;;;;;;;5086162;27;45326;-74
2022/11/24 06:12:30;;;;;;;;;2.00;2.00;;;;;;;;5089638;27;45487;-75
2022/11/24 06:14:55;;;;;;;;;2.50;1.25;;;;;;;;5097983;27;45357;-75
2022/11/24 06:17:20;;;;;;;;;2.00;2.00;;;;;;;;5083182;27;46206;-75
2022/11/24 06:19:48;;;;;;;;;5.75;2.50;;;;;;;;5096848;27;45417;-76
2022/11/24 06:22:14;;;;;;;;;7.25;3.00;;;;;;;;5092574;27;45488;-75
2022/11/24 06:24:39;;;;;;;;;1.00;1.00;;;;;;;;5078868;27;46840;-75
2022/11/24 06:27:05;;;;;;;;;3.75;2.75;;;;;;;;5085234;27;46988;-75
2022/11/24 06:29:30;;;;;;;;;2.25;2.00;;;;;;;;5088010;27;45278;-75
2022/11/24 06:31:55;;;;;;;;;4.75;2.00;;;;;;;;5080139;27;45489;-75
2022/11/24 06:34:20;;;;;;;;;1.50;1.50;;;;;;;;5091051;27;45463;-75
2022/11/24 06:36:46;;;;;;;;;3.75;2.00;;;;;;;;5088149;27;45690;-75
2022/11/24 06:39:11;;;;;;;;;3.00;2.00;;;;;;;;5078367;28;45574;-75
2022/11/24 06:41:36;;;;;;;;;3.25;2.00;;;;;;;;5080761;27;45484;-76
2022/11/24 06:44:02;;;;;;;;;3.25;1.00;;;;;;;;5086995;27;45439;-76
2022/11/24 06:46:27;;;;;;;;;2.50;1.25;;;;;;;;5078594;27;45704;-76
2022/11/24 06:48:53;;;;;;;;;3.00;1.00;;;;;;;;5078406;27;45239;-76
2022/11/24 06:51:18;;;;;;;;;1.00;1.00;;;;;;;;5080544;27;45498;-74
2022/11/24 06:53:43;;;;;;;;;1.00;1.00;;;;;;;;5079075;27;45482;-75
2022/11/24 06:56:10;;;;;;;;;2.25;2.00;;;;;;;;5080788;27;45416;-74
2022/11/24 06:58:39;;;;;;;;;3.00;2.00;;;;;;;;5080101;27;45337;-73
2022/11/24 07:01:04;;;;;;;;;5.25;3.00;;;;;;;;5081054;27;45270;-74
2022/11/24 07:03:30;;;;;;;;;4.00;2.25;;;;;;;;5083962;27;45174;-75
2022/11/24 07:05:56;;;;;;;;;7.00;4.00;;;;;;;;5089358;27;45429;-74
2022/11/24 07:08:22;;;;;;;;;4.50;2.00;;;;;;;;5087379;27;45728;-73
2022/11/24 07:10:47;;;;;;;;;2.75;2.00;;;;;;;;5079839;27;45346;-73
2022/11/24 07:13:12;;;;;;;;;2.50;1.00;;;;;;;;5083304;27;45538;-72
2022/11/24 07:15:37;;;;;;;;;3.75;1.75;;;;;;;;5080338;27;46374;-73
2022/11/24 07:18:02;;;;;;;;;3.00;2.00;;;;;;;;5083446;27;45356;-72
2022/11/24 07:20:28;;;;;;;;;4.25;1.75;;;;;;;;5086804;27;45361;-72
2022/11/24 07:22:57;;;;;;;;;4.00;2.75;;;;;;;;5083596;27;45402;-73
2022/11/24 07:25:24;;;;;;;;;3.00;2.00;;;;;;;;5081043;27;46106;-74
2022/11/24 07:27:59;;;;;;;;;4.00;3.25;;;;;;;;5090246;27;45280;-74
2022/11/24 07:30:25;;;;;;;;;9.00;5.50;;;;;;;;5081428;27;45454;-74
2022/11/24 07:32:51;;;;;;;;;5.00;2.00;;;;;;;;5082309;27;45303;-74
2022/11/24 07:35:16;;;;;;;;;2.00;2.00;;;;;;;;5085871;27;45405;-74
2022/11/24 07:37:42;;;;;;;;;3.50;2.00;;;;;;;;5088066;27;45276;-74
2022/11/24 07:40:07;;;;;;;;;3.00;2.00;;;;;;;;5081593;27;45402;-73
2022/11/24 07:42:32;;;;;;;;;2.00;2.00;;;;;;;;5089818;27;45533;-75
2022/11/24 07:44:57;;;;;;;;;5.00;2.75;;;;;;;;5090070;27;46924;-72
2022/11/24 07:47:23;;;;;;;;;8.50;4.00;;;;;;;;5085570;27;45535;-72
2022/11/24 07:49:48;;;;;;;;;7.00;5.00;;;;;;;;5095604;27;45605;-72
2022/11/24 07:52:13;;;;;;;;;8.50;7.00;;;;;;;;5084224;27;45636;-72
2022/11/24 07:54:38;;;;;;;;;7.25;3.75;;;;;;;;5081396;27;46024;-72
2022/11/24 07:57:03;;;;;;;;;8.25;4.00;;;;;;;;5091020;27;45408;-71
2022/11/24 07:59:29;;;;;;;;;8.50;4.25;;;;;;;;5084669;27;45613;-71
2022/11/24 08:01:54;;;;;;;;;8.75;3.25;;;;;;;;5083138;27;45363;-70
2022/11/24 08:04:19;;;;;;;;;2.75;1.75;;;;;;;;5081060;27;45392;-71
2022/11/24 08:06:44;;;;;;;;;3.50;3.00;;;;;;;;5083095;27;45284;-71
2022/11/24 08:09:09;;;;;;;;;4.00;3.50;;;;;;;;5080896;27;45232;-71
2022/11/24 08:11:35;;;;;;;;;9.00;4.25;;;;;;;;5084271;27;45547;-74
2022/11/24 08:14:00;;;;;;;;;4.00;4.00;;;;;;;;5082833;27;45314;-70
2022/11/24 08:16:26;;;;;;;;;4.75;3.25;;;;;;;;5085901;27;45394;-73
2022/11/24 08:18:52;;;;;;;;;8.50;3.25;;;;;;;;5079850;27;45531;-72
2022/11/24 08:21:18;;;;;;;;;2.00;2.00;;;;;;;;5092288;27;45169;-71
2022/11/24 08:23:43;;;;;;;;;4.50;2.00;;;;;;;;5084156;27;45511;-71
2022/11/24 08:26:10;;;;;;;;;3.00;0.00;;;;;;;;5093161;27;45357;-71
2022/11/24 08:28:36;;;;;;;;;5.00;4.00;;;;;;;;5082583;27;45292;-71
2022/11/24 08:31:10;;;;;;;;;4.00;3.00;;;;;;;;5082052;27;46931;-71
2022/11/24 08:33:35;;;;;;;;;8.75;5.00;;;;;;;;5088229;27;45373;-73
2022/11/24 08:36:27;;;;;;;;;11.00;4.25;;;;;;;;5082753;27;45448;-72
2022/11/24 08:38:55;;;;;;;;;3.75;3.00;;;;;;;;5079006;27;45355;-72
2022/11/24 08:41:21;;;;;;;;;11.50;8.50;;;;;;;;5082534;27;45375;-73
2022/11/24 08:43:46;;;;;;;;;9.50;1.75;;;;;;;;5083596;27;46055;-72
2022/11/24 08:46:12;;;;;;;;;3.50;2.00;;;;;;;;5082119;27;45394;-71
2022/11/24 08:48:38;;;;;;;;;5.75;3.00;;;;;;;;5082344;27;45413;-71
2022/11/24 08:51:07;;;;;;;;;3.00;2.75;;;;;;;;5093594;27;45350;-71
2022/11/24 08:53:32;;;;;;;;;2.00;1.00;;;;;;;;5084289;27;46208;-71
2022/11/24 08:56:01;;;;;;;;;4.00;4.00;;;;;;;;5082087;27;45216;-71
2022/11/24 08:58:29;;;;;;;;;3.75;3.50;;;;;;;;5091922;27;45444;-71
2022/11/24 09:00:54;;;;;;;;;5.00;4.50;;;;;;;;5079839;27;45345;-70
2022/11/24 09:03:20;;;;;;;;;4.75;3.50;;;;;;;;5086066;27;46579;-69
2022/11/24 09:05:45;;;;;;;;;2.25;2.25;;;;;;;;5081197;27;45311;-70
2022/11/24 09:08:10;;;;;;;;;8.00;3.00;;;;;;;;5085610;27;45260;-70
2022/11/24 09:10:35;;;;;;;;;7.00;5.00;;;;;;;;5079940;27;45497;-71
2022/11/24 09:13:01;;;;;;;;;7.75;3.00;;;;;;;;5081677;27;45355;-71
2022/11/24 09:15:26;;;;;;;;;6.00;5.00;;;;;;;;5079589;27;45339;-71
2022/11/24 09:17:51;;;;;;;;;3.50;3.00;;;;;;;;5080508;27;45390;-70
2022/11/24 09:20:16;;;;;;;;;4.00;3.00;;;;;;;;5082610;27;45433;-71
2022/11/24 09:22:42;;;;;;;;;7.25;3.00;;;;;;;;5088373;27;45326;-71
2022/11/24 09:25:07;;;;;;;;;9.00;4.00;;;;;;;;5090076;27;45480;-71
2022/11/24 09:27:32;;;;;;;;;3.25;2.00;;;;;;;;5081795;27;45882;-71
2022/11/24 09:29:57;;;;;;;;;5.00;3.25;;;;;;;;5093946;27;44749;-71
2022/11/24 09:32:22;;;;;;;;;4.00;2.00;;;;;;;;5081849;27;45200;-71
2022/11/24 09:34:51;;;;;;;;;4.25;3.25;;;;;;;;5084105;27;45169;-72
2022/11/24 09:37:17;;;;;;;;;4.50;3.50;;;;;;;;5086544;27;45263;-71
2022/11/24 09:39:42;;;;;;;;;4.75;2.00;;;;;;;;5080032;27;45458;-71
2022/11/24 09:42:07;;;;;;;;;3.25;2.00;;;;;;;;5082439;27;45496;-71
2022/11/24 09:44:47;;;;;;;;;5.75;3.00;;;;;;;;5079462;27;45303;-71
2022/11/24 09:47:19;;;;;;;;;6.25;3.50;;;;;;;;5084422;27;45389;-71
2022/11/24 09:50:04;;;;;;;;;4.00;2.00;;;;;;;;5079207;28;45468;-71
2022/11/24 09:52:35;;;;;;;;;4.75;3.50;;;;;;;;5085795;27;45196;-72
2022/11/24 09:55:01;;;;;;;;;5.00;4.00;;;;;;;;5089984;27;45228;-72
2022/11/24 09:57:29;;;;;;;;;3.50;3.50;;;;;;;;5093318;27;45421;-71
2022/11/24 10:00:00;;;;;;;;;4.75;4.00;;;;;;;;5085010;27;45464;-71
2022/11/24 10:02:25;;;;;;;;;6.00;5.25;;;;;;;;5084611;27;45405;-71
2022/11/24 10:04:53;;;;;;;;;3.25;3.25;;;;;;;;5090652;27;45274;-72
2022/11/24 10:07:26;;;;;;;;;3.00;3.00;;;;;;;;5087904;27;45778;-72
2022/11/24 10:10:10;;;;;;;;;4.00;2.25;;;;;;;;5078897;28;45184;-72
2022/11/24 10:12:44;;;;;;;;;3.67;3.00;;;;;;;;5085065;27;45628;-73
2022/11/24 10:15:17;;;;;;;;;10.00;3.50;;;;;;;;5079026;27;45247;-73
2022/11/24 10:17:46;;;;;;;;;5.50;4.00;;;;;;;;5080741;27;45488;-73
2022/11/24 10:20:26;;;;;;;;;5.67;4.00;;;;;;;;5086081;27;45924;-73
2022/11/24 10:23:02;;;;;;;;;6.33;5.67;;;;;;;;5078751;27;45324;-73
2022/11/24 10:25:40;;;;;;;;;8.33;4.00;;;;;;;;5077317;27;45538;-72
2022/11/24 10:28:10;;;;;;;;;5.00;4.00;;;;;;;;5087462;27;45353;-72
2022/11/24 10:30:36;;;;;;;;;3.33;3.33;;;;;;;;5093296;27;45456;-72
2022/11/24 10:33:18;;;;;;;;;7.00;2.33;;;;;;;;5080774;27;45561;-73
2022/11/24 10:35:48;;;;;;;;;4.00;3.00;;;;;;;;5087332;27;45411;-72
2022/11/24 10:38:20;;;;;;;;;6.67;4.00;;;;;;;;5079535;27;45181;-72
2022/11/24 10:40:52;;;;;;;;;5.67;2.67;;;;;;;;5078598;27;45339;-72
2022/11/24 10:43:17;;;;;;;;;4.00;2.00;;;;;;;;5081145;27;45400;-72
2022/11/24 10:45:43;;;;;;;;;2.00;2.00;;;;;;;;5092706;27;45464;-72
2022/11/24 10:48:29;;;;;;;;;4.33;3.00;;;;;;;;5083317;27;45513;-72
2022/11/24 10:51:02;;;;;;;;;7.00;2.33;;;;;;;;5081750;27;45300;-72
2022/11/24 10:53:29;;;;;;;;;3.00;1.33;;;;;;;;5086374;27;45545;-73
2022/11/24 10:55:57;;;;;;;;;3.33;2.00;;;;;;;;5084088;27;45491;-72
2022/11/24 10:58:36;;;;;;;;;2.33;2.00;;;;;;;;5090392;27;45323;-72
2022/11/24 11:01:18;;;;;;;;;3.00;2.00;;;;;;;;5082014;27;45458;-72
2022/11/24 11:03:47;;;;;;;;;4.33;3.33;;;;;;;;5088562;27;46079;-72
2022/11/24 11:06:14;;;;;;;;;4.33;3.33;;;;;;;;5081846;27;45366;-72
2022/11/24 11:08:39;;;;;;;;;7.00;3.00;;;;;;;;5089544;27;45464;-72
2022/11/24 11:11:17;;;;;;;;;6.67;2.67;;;;;;;;5092267;27;45411;-72
2022/11/24 11:13:52;;;;;;;;;5.33;5.00;;;;;;;;5083688;27;45203;-72
2022/11/24 11:16:22;;;;;;;;;2.33;2.33;;;;;;;;5091370;27;45305;-73
2022/11/24 11:18:48;;;;;;;;;6.00;3.00;;;;;;;;5090209;27;45391;-72
2022/11/24 11:21:23;;;;;;;;;3.00;2.00;;;;;;;;5090084;27;45352;-72
2022/11/24 11:23:50;;;;;;;;;3.33;2.00;;;;;;;;5081758;27;45307;-72
2022/11/24 11:26:35;;;;;;;;;5.33;2.33;;;;;;;;5083909;27;45656;-72
2022/11/24 11:29:12;;;;;;;;;6.33;2.00;;;;;;;;5086216;27;45292;-72
2022/11/24 11:31:38;;;;;;;;;7.00;5.33;;;;;;;;5083322;27;45271;-72
2022/11/24 11:34:09;;;;;;;;;8.33;5.00;;;;;;;;5085521;27;45250;-72
2022/11/24 11:36:55;;;;;;;;;4.67;3.00;;;;;;;;5083976;27;45329;-72
2022/11/24 11:39:31;;;;;;;;;5.00;4.00;;;;;;;;5081104;27;45319;-72
2022/11/24 11:41:59;;;;;;;;;6.00;6.00;;;;;;;;5082825;27;45268;-72
2022/11/24 11:44:24;;;;;;;;;6.00;3.00;;;;;;;;5089763;27;45312;-72
2022/11/24 11:46:50;;;;;;;;;7.00;6.67;;;;;;;;5089283;27;45396;-74
2022/11/24 11:49:16;;;;;;;;;5.00;3.00;;;;;;;;5086001;27;45412;-73
2022/11/24 11:51:52;;;;;;;;;7.00;3.00;;;;;;;;5092104;27;45382;-73
2022/11/24 11:54:20;;;;;;;;;8.00;4.33;;;;;;;;5087564;27;45377;-72
2022/11/24 11:56:57;;;;;;;;;8.67;4.00;;;;;;;;5095144;27;45458;-74
2022/11/24 11:59:22;;;;;;;;;6.00;3.33;;;;;;;;5082253;27;45403;-73
2022/11/24 12:01:55;;;;;;;;;4.67;3.33;;;;;;;;5078511;27;45445;-75
2022/11/24 12:04:27;;;;;;;;;8.00;5.00;;;;;;;;5084405;27;45418;-75
2022/11/24 12:07:10;;;;;;;;;7.00;3.00;;;;;;;;5079987;27;45394;-74
2022/11/24 12:09:50;;;;;;;;;11.00;8.67;;;;;;;;5080001;27;45263;-74
2022/11/24 12:12:24;;;;;;;;;6.33;4.67;;;;;;;;5079183;27;45684;-73
2022/11/24 12:14:55;;;;;;;;;5.33;3.33;;;;;;;;5080223;27;45241;-74
2022/11/24 12:17:44;;;;;;;;;5.00;4.00;;;;;;;;5082062;27;45443;-73
2022/11/24 12:20:36;;;;;;;;;7.33;5.33;;;;;;;;5099724;27;45293;-73
2022/11/24 12:23:09;;;;;;;;;11.67;6.00;;;;;;;;5090654;27;45432;-73
2022/11/24 12:25:41;;;;;;;;;8.33;4.67;;;;;;;;5080757;27;45535;-72
2022/11/24 12:28:27;;;;;;;;;10.67;7.00;;;;;;;;5081278;27;45665;-75
2022/11/24 12:30:55;;;;;;;;;5.67;4.00;;;;;;;;5081913;27;45619;-73
2022/11/24 12:33:20;;;;;;;;;5.00;3.00;;;;;;;;5080825;27;45259;-75
2022/11/24 12:35:51;;;;;;;;;3.67;3.00;;;;;;;;5095010;27;46692;-75
2022/11/24 12:38:16;;;;;;;;;6.67;4.00;;;;;;;;5082436;27;46230;-75
2022/11/24 12:40:56;;;;;;;;;6.33;3.00;;;;;;;;5080802;27;45315;-74
2022/11/24 12:43:26;;;;;;;;;8.33;4.00;;;;;;;;5082409;27;45211;-74
2022/11/24 12:46:10;;;;;;;;;8.00;4.00;;;;;;;;5080249;27;47652;-74
2022/11/24 12:48:47;;;;;;;;;6.00;4.00;;;;;;;;5080216;27;45397;-74
2022/11/24 12:51:17;;;;;;;;;9.33;4.00;;;;;;;;5082715;27;45421;-75
2022/11/24 12:53:43;;;;;;;;;15.33;6.33;;;;;;;;5080149;27;45473;-73
2022/11/24 12:56:11;;;;;;;;;9.33;5.00;;;;;;;;5079918;27;45360;-74
2022/11/24 12:58:57;;;;;;;;;7.33;5.67;;;;;;;;5091198;27;45369;-75
2022/11/24 13:01:57;;;;;;;;;5.33;4.33;;;;;;;;5092973;27;47660;-75
2022/11/24 13:04:41;;;;;;;;;4.00;4.00;;;;;;;;5022773;28;45556;-75
2022/11/24 13:07:12;;;;;;;;;5.33;4.33;;;;;;;;5075352;27;46118;-74
2022/11/24 13:09:39;;;;;;;;;4.67;4.33;;;;;;;;5079290;27;45323;-74
2022/11/24 13:12:11;;;;;;;;;6.00;4.33;;;;;;;;5079055;27;45457;-74
2022/11/24 13:14:38;;;;;;;;;5.33;5.33;;;;;;;;5089245;27;45350;-75
2022/11/24 13:17:21;;;;;;;;;6.00;5.00;;;;;;;;5081795;27;45655;-75
2022/11/24 13:19:47;;;;;;;;;9.33;6.67;;;;;;;;5079008;27;45324;-75
2022/11/24 13:22:14;;;;;;;;;6.33;6.33;;;;;;;;5078922;27;45413;-74
2022/11/24 13:24:39;;;;;;;;;10.33;6.67;;;;;;;;5079110;27;45416;-73
2022/11/24 13:27:18;;;;;;;;;8.33;6.00;;;;;;;;5081848;27;46040;-73
2022/11/24 13:29:47;;;;;;;;;8.33;6.00;;;;;;;;5093624;27;45326;-75
2022/11/24 13:32:18;;;;;;;;;8.00;7.00;;;;;;;;5089293;27;45414;-73
2022/11/24 13:34:48;;;;;;;;;7.67;5.00;;;;;;;;5082000;27;45425;-74
2022/11/24 13:37:24;;;;;;;;;7.00;5.33;;;;;;;;5086480;27;47157;-72
2022/11/24 13:39:51;;;;;;;;;4.67;4.00;;;;;;;;5082095;27;44889;-73
2022/11/24 13:42:16;;;;;;;;;4.33;4.00;;;;;;;;5078903;27;45359;-72
2022/11/24 13:44:42;;;;;;;;;6.00;5.00;;;;;;;;5077806;27;45529;-73
2022/11/24 13:47:26;;;;;;;;;2.00;2.00;;;;;;;;5086597;27;46283;-73
2022/11/24 13:49:51;;;;;;;;;9.33;4.00;;;;;;;;5079096;27;45370;-74
2022/11/24 13:52:36;;;;;;;;;8.00;6.33;;;;;;;;5078233;27;45536;-73
2022/11/24 13:55:21;;;;;;;;;8.00;5.33;;;;;;;;5078771;27;45300;-73
2022/11/24 13:57:51;;;;;;;;;5.00;3.67;;;;;;;;5078499;27;45293;-73
2022/11/24 14:00:16;;;;;;;;;3.33;3.33;;;;;;;;5092391;27;45532;-72
2022/11/24 14:02:42;;;;;;;;;3.33;3.33;;;;;;;;5086119;27;45368;-73
2022/11/24 14:05:12;;;;;;;;;4.33;2.67;;;;;;;;5078195;27;45452;-72
2022/11/24 14:07:39;;;;;;;;;7.67;4.00;;;;;;;;5079007;27;45279;-72
2022/11/24 14:10:05;;;;;;;;;10.00;4.67;;;;;;;;5078715;28;45354;-72
2022/11/24 14:12:32;;;;;;;;;3.00;3.00;;;;;;;;5085759;27;45415;-72
2022/11/24 14:15:17;;;;;;;;;5.67;3.00;;;;;;;;5086098;27;45463;-73
2022/11/24 14:17:42;;;;;;;;;5.00;3.67;;;;;;;;5087784;27;45496;-73
2022/11/24 14:20:15;;;;;;;;;7.00;3.00;;;;;;;;5087498;27;45331;-73
2022/11/24 14:22:42;;;;;;;;;5.67;3.00;;;;;;;;5078249;27;45358;-73
2022/11/24 14:25:28;;;;;;;;;8.33;4.33;;;;;;;;5094123;27;45357;-73
2022/11/24 14:27:54;;;;;;;;;6.33;4.33;;;;;;;;5086122;27;45620;-72
2022/11/24 14:30:20;;;;;;;;;7.00;5.00;;;;;;;;5081872;27;44813;-72
2022/11/24 14:33:02;;;;;;;;;5.00;4.67;;;;;;;;5084427;27;45437;-73
2022/11/24 14:35:31;;;;;;;;;4.00;2.00;;;;;;;;5086574;27;45468;-73
2022/11/24 14:37:57;;;;;;;;;6.33;3.00;;;;;;;;5084206;27;45259;-73
2022/11/24 14:40:41;;;;;;;;;5.67;3.33;;;;;;;;5080679;27;45273;-73
2022/11/24 14:43:25;;;;;;;;;5.67;3.00;;;;;;;;5085914;27;45278;-75
2022/11/24 14:46:01;;;;;;;;;4.33;4.00;;;;;;;;5082869;27;45286;-73
2022/11/24 14:48:35;;;;;;;;;6.67;4.67;;;;;;;;5082845;27;46178;-73
2022/11/24 14:51:07;;;;;;;;;1.00;0.67;;;;;;;;5084304;27;45260;-73